Terminal Aerodrome Forecast
Issued by NWS Sioux Falls, SD

Home | Current Version | Previous Version | Graphics & Text | Print | Product List | Glossary On
Versions: 1 2 3 4 5 6 7 8 9 10 11
623
FTUS43 KFSD 291120
TAFHON
TAF
KHON 291120Z 2912/3012 VRB04KT P6SM SKC
     FM291600 06008KT P6SM SCT250
     FM300200 05008KT P6SM OVC150
     FM300900 02006KT P6SM BKN080=

USA.gov is the U.S. government's official web portal to all federal, state and local government web resources and services.